^^
Station Historical Data
 
Daily Summary for August 31, 2015 Units:  English    Metric   Both
« Previous Day
Next Day »
Daily Weekly Monthly Yearly Custom
  Current: High: Low: Average:
Temperature: 71.8 °F 85.9 °F 67.3 °F 74.7 °F
Dew Point: 49.3 °F 53.5 °F 41.1 °F 48 °F
Humidity: 45% 56% 21% 40%
Wind Speed: 0.0mph 12.7mph 1.0mph 4mph
Wind Gust: 0.0mph 12.7mph - -
WindCalm - - South
Pressure: 29.72 in 29.72 in 29.48 in -
Precipitation: 0.01 in      
Historical Graphs
 
 
Tabular Data for August 31, 2015
Time Temperature Dew Point Pressure Wind Wind Speed Wind Gust Humidity Rainfall Rate (Hourly)
00:04 73.7 °F 45.1 °F 29.48 in NNW 2.3 mph 2.3 mph 36% 0.00 in
00:09 73.5 °F 46.3 °F 29.48 in NNW 2.3 mph 2.3 mph 38% 0.00 in
00:14 73.5 °F 44.9 °F 29.48 in Calm     36% 0.00 in
00:19 73.2 °F 45.4 °F 29.49 in Calm     37% 0.00 in
00:24 73.0 °F 45.9 °F 29.50 in North 3.0 mph 3.0 mph 38% 0.00 in
00:29 72.7 °F 47.0 °F 29.49 in North 2.3 mph   40% 0.00 in
00:34 72.0 °F 47.0 °F 29.49 in Calm     41% 0.00 in
00:39 71.8 °F 45.5 °F 29.49 in Calm     39% 0.00 in
00:44 71.8 °F 46.2 °F 29.49 in Calm     40% 0.00 in
00:49 71.8 °F 46.8 °F 29.49 in Calm     41% 0.00 in
00:54 71.6 °F 46.6 °F 29.49 in Calm     41% 0.00 in
00:59 71.3 °F 47.6 °F 29.49 in Calm     43% 0.00 in
01:04 71.1 °F 47.5 °F 29.49 in Calm     43% 0.00 in
01:09 70.8 °F 46.6 °F 29.49 in Calm     42% 0.00 in
01:14 70.6 °F 47.0 °F 29.50 in Calm     43% 0.00 in
01:19 70.3 °F 46.1 °F 29.50 in Calm     42% 0.00 in
01:24 70.1 °F 46.6 °F 29.50 in Calm     43% 0.00 in
01:29 70.1 °F 46.6 °F 29.50 in Calm     43% 0.00 in
01:34 70.1 °F 47.2 °F 29.50 in Calm     44% 0.00 in
01:39 69.9 °F 47.0 °F 29.50 in Calm     44% 0.00 in
01:44 69.8 °F 47.5 °F 29.50 in Calm     45% 0.00 in
01:49 69.6 °F 47.3 °F 29.50 in Calm     45% 0.00 in
01:54 69.4 °F 47.7 °F 29.51 in Calm     46% 0.00 in
01:59 69.3 °F 47.6 °F 29.51 in Calm     46% 0.00 in
02:04 69.1 °F 47.4 °F 29.50 in Calm     46% 0.00 in
02:09 68.9 °F 47.8 °F 29.50 in Calm     47% 0.00 in
02:14 68.8 °F 47.7 °F 29.50 in Calm     47% 0.00 in
02:19 68.6 °F 47.0 °F 29.50 in Calm     46% 0.00 in
02:24 68.6 °F 47.0 °F 29.50 in Calm     46% 0.00 in
02:30 68.4 °F 48.5 °F 29.50 in Calm     49% 0.00 in
02:35 68.4 °F 49.0 °F 29.50 in Calm     50% 0.00 in
02:40 68.3 °F 48.9 °F 29.50 in Calm     50% 0.00 in
02:45 68.3 °F 48.4 °F 29.49 in Calm     49% 0.00 in
02:50 68.4 °F 47.4 °F 29.50 in North 1.2 mph 1.2 mph 47% 0.00 in
02:55 69.1 °F 48.0 °F 29.49 in North 2.3 mph 2.3 mph 47% 0.00 in
03:00 69.3 °F 48.8 °F 29.48 in North 3.5 mph 3.5 mph 48% 0.00 in
03:05 69.4 °F 48.9 °F 29.49 in North 2.3 mph 2.3 mph 48% 0.00 in
03:10 69.3 °F 49.9 °F 29.50 in North 3.5 mph 3.5 mph 50% 0.00 in
03:15 69.1 °F 49.7 °F 29.50 in North 1.2 mph 1.2 mph 50% 0.00 in
03:20 69.1 °F 50.7 °F 29.50 in Calm     52% 0.00 in
03:25 68.9 °F 50.5 °F 29.50 in Calm     52% 0.00 in
03:30 68.8 °F 51.0 °F 29.50 in Calm     53% 0.00 in
03:35 68.4 °F 50.6 °F 29.51 in Calm     53% 0.00 in
03:40 68.3 °F 51.0 °F 29.51 in Calm     54% 0.00 in
03:45 67.9 °F 51.1 °F 29.51 in Calm     55% 0.00 in
03:50 67.6 °F 51.3 °F 29.51 in Calm     56% 0.00 in
03:55 67.3 °F 50.6 °F 29.52 in Calm     55% 0.00 in
04:00 67.3 °F 50.6 °F 29.52 in Calm     55% 0.00 in
04:05 67.3 °F 50.1 °F 29.52 in Calm     54% 0.00 in
04:10 67.6 °F 48.8 °F 29.51 in Calm     51% 0.00 in
04:15 67.9 °F 49.1 °F 29.51 in Calm     51% 0.00 in
04:20 67.9 °F 49.6 °F 29.51 in Calm     52% 0.00 in
04:25 67.9 °F 49.6 °F 29.51 in Calm     52% 0.00 in
04:30 67.8 °F 50.0 °F 29.51 in Calm     53% 0.00 in
04:35 67.8 °F 49.5 °F 29.51 in Calm     52% 0.00 in
04:40 67.6 °F 49.9 °F 29.51 in Calm     53% 0.00 in
04:45 67.6 °F 49.9 °F 29.51 in Calm     53% 0.00 in
04:50 67.6 °F 49.9 °F 29.52 in Calm     53% 0.00 in
04:55 67.9 °F 50.1 °F 29.52 in Calm     53% 0.00 in
05:00 68.3 °F 49.5 °F 29.52 in Calm     51% 0.00 in
05:05 68.6 °F 49.2 °F 29.53 in Calm     50% 0.00 in
05:10 68.8 °F 49.4 °F 29.52 in Calm     50% 0.00 in
05:15 68.8 °F 48.9 °F 29.52 in Calm     49% 0.00 in
05:20 68.8 °F 48.3 °F 29.52 in Calm     48% 0.00 in
05:25 68.9 °F 47.8 °F 29.52 in Calm     47% 0.00 in
05:30 69.3 °F 48.2 °F 29.53 in Calm     47% 0.00 in
05:35 69.3 °F 47.6 °F 29.53 in Calm     46% 0.00 in
05:40 69.3 °F 47.6 °F 29.53 in Calm     46% 0.00 in
05:45 69.3 °F 47.6 °F 29.53 in Calm     46% 0.00 in
05:50 69.3 °F 47.6 °F 29.53 in Calm     46% 0.00 in
05:55 69.3 °F 48.2 °F 29.52 in Calm     47% 0.00 in
06:00 69.4 °F 48.3 °F 29.52 in North 1.0 mph 1.0 mph 47% 0.00 in
06:05 69.9 °F 47.6 °F 29.54 in North 3.5 mph 3.5 mph 45% 0.00 in
06:10 70.8 °F 47.2 °F 29.54 in North 4.0 mph 4.0 mph 43% 0.00 in
06:15 71.3 °F 47.0 °F 29.55 in NW 2.3 mph 2.3 mph 42% 0.00 in
06:20 71.5 °F 47.8 °F 29.54 in NW 2.3 mph 2.3 mph 43% 0.00 in
06:25 71.5 °F 48.4 °F 29.54 in WNW 1.2 mph 1.2 mph 44% 0.00 in
06:30 71.3 °F 48.9 °F 29.54 in WNW 3.5 mph 3.5 mph 45% 0.00 in
06:35 71.3 °F 48.9 °F 29.54 in NW 3.5 mph 3.5 mph 45% 0.00 in
06:40 71.1 °F 49.3 °F 29.55 in NW 1.2 mph   46% 0.00 in
06:45 70.9 °F 49.7 °F 29.55 in NW 3.5 mph   47% 0.00 in
06:50 70.8 °F 49.6 °F 29.56 in Calm     47% 0.00 in
06:55 70.6 °F 49.4 °F 29.56 in Calm     47% 0.00 in
07:00 70.6 °F 49.4 °F 29.57 in Calm   0.9 mph 47% 0.00 in
07:05 70.6 °F 50.0 °F 29.61 in NW 2.3 mph 2.3 mph 48% 0.00 in
07:10 70.6 °F 49.4 °F 29.61 in Calm     47% 0.00 in
07:15 70.6 °F 49.4 °F 29.62 in Calm     47% 0.00 in
07:20 70.6 °F 49.4 °F 29.62 in Calm     47% 0.00 in
07:25 70.6 °F 49.4 °F 29.62 in Calm     47% 0.00 in
07:30 70.6 °F 50.5 °F 29.63 in Calm     49% 0.00 in
07:35 70.4 °F 50.3 °F 29.64 in Calm     49% 0.00 in
07:41 70.3 °F 50.8 °F 29.64 in Calm     50% 0.00 in
07:46 69.9 °F 50.4 °F 29.64 in Calm     50% 0.00 in
07:51 69.9 °F 49.9 °F 29.64 in Calm     49% 0.00 in
07:56 69.8 °F 51.9 °F 29.64 in Calm     53% 0.00 in
08:01 69.8 °F 50.9 °F 29.64 in Calm     51% 0.00 in
08:06 69.6 °F 52.2 °F 29.65 in Calm     54% 0.00 in
08:11 69.3 °F 51.9 °F 29.65 in Calm     54% 0.00 in
08:16 69.1 °F 52.7 °F 29.65 in Calm     56% 0.00 in
08:21 68.9 °F 52.1 °F 29.65 in Calm     55% 0.00 in
08:26 68.9 °F 51.1 °F 29.65 in Calm     53% 0.00 in
08:31 69.3 °F 50.9 °F 29.65 in NW 2.3 mph 2.3 mph 52% 0.00 in
08:36 69.6 °F 50.7 °F 29.66 in NW 1.2 mph   51% 0.00 in
08:41 69.9 °F 50.4 °F 29.66 in SSE 3.5 mph 3.5 mph 50% 0.00 in
08:46 70.3 °F 50.8 °F 29.66 in SE 3.5 mph 3.5 mph 50% 0.00 in
08:51 70.3 °F 52.4 °F 29.66 in Calm     53% 0.00 in
08:56 69.9 °F 53.5 °F 29.66 in SE 2.3 mph 2.3 mph 56% 0.00 in
09:01 69.8 °F 52.9 °F 29.66 in Calm     55% 0.00 in
09:06 69.6 °F 53.2 °F 29.67 in Calm     56% 0.00 in
09:11 69.8 °F 51.4 °F 29.67 in Calm     52% 0.00 in
09:16 70.3 °F 52.4 °F 29.67 in Calm     53% 0.00 in
09:21 70.8 °F 51.2 °F 29.66 in ESE 3.5 mph 3.5 mph 50% 0.00 in
09:26 71.5 °F 50.8 °F 29.66 in ESE 1.2 mph   48% 0.00 in
09:31 72.0 °F 51.2 °F 29.66 in SSE 3.5 mph 3.5 mph 48% 0.00 in
09:36 72.3 °F 50.4 °F 29.67 in Calm     46% 0.00 in
09:41 72.7 °F 51.3 °F 29.66 in Calm     47% 0.00 in
09:46 73.0 °F 51.0 °F 29.66 in Calm     46% 0.00 in
09:51 73.2 °F 51.2 °F 29.66 in Calm     46% 0.00 in
09:56 73.3 °F 50.7 °F 29.67 in Calm     45% 0.00 in
10:01 73.7 °F 53.3 °F 29.67 in Calm     49% 0.00 in
10:06 73.9 °F 52.4 °F 29.67 in Calm     47% 0.00 in
10:11 74.4 °F 51.7 °F 29.67 in Calm     45% 0.00 in
10:16 75.4 °F 52.0 °F 29.66 in Calm     44% 0.00 in
10:21 76.1 °F 51.3 °F 29.66 in SSE 1.2 mph   42% 0.00 in
10:26 76.3 °F 50.9 °F 29.66 in Calm     41% 0.00 in
10:31 76.3 °F 49.5 °F 29.66 in Calm     39% 0.00 in
10:36 76.1 °F 52.0 °F 29.66 in Calm     43% 0.00 in
10:46 76.7 °F 53.1 °F 29.66 in Calm     44% 0.00 in
10:56 77.6 °F 50.7 °F 29.66 in Calm     39% 0.00 in
11:01 78.1 °F 49.7 °F 29.65 in Calm     37% 0.00 in
11:06 78.3 °F 52.0 °F 29.66 in Calm     40% 0.00 in
11:11 78.3 °F 47.6 °F 29.66 in Calm     34% 0.00 in
11:16 78.5 °F 45.3 °F 29.66 in Calm     31% 0.00 in
11:21 79.0 °F 47.4 °F 29.67 in Calm     33% 0.00 in
11:26 79.6 °F 48.8 °F 29.66 in Calm     34% 0.00 in
11:31 80.1 °F 47.6 °F 29.65 in ESE 1.2 mph 1.2 mph 32% 0.00 in
11:36 80.5 °F 45.3 °F 29.65 in East 2.3 mph 2.3 mph 29% 0.00 in
11:41 80.7 °F 46.4 °F 29.65 in Calm     30% 0.00 in
11:46 81.1 °F 47.6 °F 29.65 in East 3.5 mph 3.5 mph 31% 0.00 in
11:51 81.2 °F 45.9 °F 29.65 in East 2.3 mph 2.3 mph 29% 0.00 in
11:56 81.4 °F 47.0 °F 29.65 in ESE 3.5 mph 3.5 mph 30% 0.00 in
12:01 81.4 °F 48.7 °F 29.65 in ESE 2.3 mph 2.3 mph 32% 0.00 in
12:06 81.4 °F 49.5 °F 29.66 in East 5.0 mph 5.0 mph 33% 0.00 in
12:11 81.1 °F 47.6 °F 29.65 in East 4.0 mph 4.0 mph 31% 0.00 in
12:21 82.2 °F 45.8 °F 29.65 in ESE 2.3 mph 2.3 mph 28% 0.00 in
12:26 82.4 °F 46.0 °F 29.65 in ESE 3.5 mph 3.5 mph 28% 0.00 in
12:36 82.6 °F 48.9 °F 29.64 in ENE 5.8 mph 5.8 mph 31% 0.00 in
12:41 83.2 °F 46.7 °F 29.64 in ENE 3.5 mph 3.5 mph 28% 0.00 in
12:46 83.8 °F 46.2 °F 29.64 in ENE 3.5 mph   27% 0.00 in
12:51 84.1 °F 45.5 °F 29.63 in East 6.9 mph 6.9 mph 26% 0.00 in
12:56 83.8 °F 46.2 °F 29.63 in East 2.3 mph 2.3 mph 27% 0.00 in
13:01 83.8 °F 47.2 °F 29.64 in East 2.3 mph   28% 0.00 in
13:06 84.0 °F 44.4 °F 29.64 in ENE 6.9 mph 6.9 mph 25% 0.00 in
13:11 84.3 °F 45.7 °F 29.64 in ENE 3.5 mph 3.5 mph 26% 0.00 in
13:16 84.7 °F 43.9 °F 29.63 in NW 4.0 mph 4.0 mph 24% 0.00 in
13:21 84.7 °F 46.0 °F 29.62 in ENE 6.0 mph 6.0 mph 26% 0.00 in
13:26 84.1 °F 42.3 °F 29.64 in ENE 6.9 mph 6.9 mph 23% 0.00 in
13:31 84.3 °F 41.3 °F 29.64 in ENE 4.6 mph 4.6 mph 22% 0.00 in
13:36 84.5 °F 44.8 °F 29.62 in Calm     25% 0.00 in
13:42 85.1 °F 42.0 °F 29.62 in Calm     22% 0.00 in
13:47 85.7 °F 41.3 °F 29.62 in ENE 2.3 mph 2.3 mph 21% 0.00 in
13:52 85.9 °F 41.4 °F 29.62 in ENE 3.5 mph 3.5 mph 21% 0.00 in
13:57 85.5 °F 43.5 °F 29.62 in ENE 3.5 mph 3.5 mph 23% 0.00 in
14:02 85.3 °F 42.1 °F 29.62 in ENE 3.5 mph 3.5 mph 22% 0.00 in
14:07 85.1 °F 42.0 °F 29.62 in ENE 3.5 mph 3.5 mph 22% 0.00 in
14:12 84.9 °F 41.8 °F 29.62 in ENE 3.5 mph 3.5 mph 22% 0.00 in
14:17 84.3 °F 41.3 °F 29.63 in ENE 6.9 mph 6.9 mph 22% 0.00 in
14:22 84.1 °F 41.1 °F 29.63 in ENE 4.6 mph 4.6 mph 22% 0.00 in
14:32 83.8 °F 42.0 °F 29.62 in ENE 5.8 mph 5.8 mph 23% 0.00 in
14:37 83.8 °F 42.0 °F 29.62 in ENE 4.0 mph 4.0 mph 23% 0.00 in
14:42 83.6 °F 41.9 °F 29.62 in ENE 3.5 mph 3.5 mph 23% 0.00 in
14:47 83.8 °F 43.2 °F 29.61 in ENE 5.8 mph 5.8 mph 24% 0.00 in
14:52 83.6 °F 44.1 °F 29.61 in ENE 7.0 mph 7.0 mph 25% 0.00 in
14:57 83.4 °F 44.9 °F 29.61 in ENE 5.8 mph 5.8 mph 26% 0.00 in
15:02 83.4 °F 46.9 °F 29.62 in ENE 3.0 mph 3.0 mph 28% 0.00 in
15:07 83.2 °F 43.7 °F 29.62 in ENE 3.5 mph 3.5 mph 25% 0.00 in
15:12 83.4 °F 44.9 °F 29.61 in ENE 3.5 mph 3.5 mph 26% 0.00 in
15:17 83.4 °F 42.8 °F 29.61 in ENE 5.8 mph 5.8 mph 24% 0.00 in
15:22 83.2 °F 44.7 °F 29.61 in ENE 4.6 mph 4.6 mph 26% 0.00 in
15:27 83.2 °F 45.7 °F 29.61 in ENE 3.5 mph 3.5 mph 27% 0.00 in
15:32 83.0 °F 44.6 °F 29.61 in ENE 3.5 mph 3.5 mph 26% 0.00 in
15:37 83.0 °F 45.6 °F 29.61 in ENE 2.3 mph 2.3 mph 27% 0.00 in
15:42 83.0 °F 45.6 °F 29.61 in ENE 3.5 mph 3.5 mph 27% 0.00 in
15:47 83.0 °F 44.6 °F 29.61 in Calm     26% 0.00 in
15:52 83.0 °F 46.5 °F 29.62 in Calm     28% 0.00 in
15:57 83.0 °F 43.5 °F 29.62 in Calm     25% 0.00 in
16:02 83.0 °F 44.6 °F 29.62 in Calm     26% 0.00 in
16:07 82.8 °F 44.4 °F 29.62 in Calm     26% 0.00 in
16:12 82.6 °F 44.2 °F 29.63 in Calm     26% 0.00 in
16:17 82.4 °F 45.1 °F 29.63 in Calm     27% 0.00 in
16:22 82.4 °F 42.0 °F 29.64 in Calm     24% 0.00 in
16:24 82.4 °F 44.1 °F 29.63 in ENE 2.0 mph 2.0 mph 26% 0.00 in
16:25 82.4 °F 44.1 °F 29.64 in ENE 3.5 mph 3.5 mph 26% 0.00 in
16:30 82.8 °F 43.4 °F 29.63 in ENE 3.5 mph 3.5 mph 25% 0.00 in
16:35 82.8 °F 42.3 °F 29.64 in SSE 3.5 mph 3.5 mph 24% 0.00 in
16:40 82.8 °F 42.3 °F 29.64 in SE 5.8 mph 5.8 mph 24% 0.00 in
16:45 81.6 °F 46.3 °F 29.64 in WSW 11.5 mph 11.5 mph 29% 0.00 in
16:50 79.4 °F 47.8 °F 29.65 in SE 8.1 mph 8.1 mph 33% 0.00 in
16:51 78.8 °F 48.8 °F 29.66 in SW 10.4 mph 10.4 mph 35% 0.00 in
16:56 77.2 °F 47.4 °F 29.66 in SSW 3.5 mph 3.5 mph 35% 0.00 in
17:01 76.5 °F 47.6 °F 29.67 in SSW 8.1 mph 8.1 mph 36% 0.00 in
17:06 75.8 °F 49.1 °F 29.67 in South 4.6 mph 4.6 mph 39% 0.00 in
17:11 75.1 °F 49.1 °F 29.67 in SSW 5.8 mph 5.8 mph 40% 0.00 in
17:16 74.7 °F 50.1 °F 29.67 in WSW 4.6 mph 4.6 mph 42% 0.00 in
17:21 74.4 °F 50.4 °F 29.68 in SSW 3.5 mph 3.5 mph 43% 0.00 in
17:26 74.0 °F 50.1 °F 29.68 in SW 3.5 mph 3.5 mph 43% 0.00 in
17:31 74.0 °F 49.4 °F 29.68 in South 10.4 mph 10.4 mph 42% 0.00 in
17:41 74.0 °F 50.7 °F 29.68 in SSW 4.6 mph 4.6 mph 44% 0.00 in
17:46 74.0 °F 50.7 °F 29.69 in West 4.6 mph 4.6 mph 44% 0.00 in
17:51 74.0 °F 51.3 °F 29.70 in NNW 10.4 mph 10.4 mph 45% 0.00 in
17:56 74.2 °F 49.0 °F 29.70 in NW 12.7 mph 12.7 mph 41% 0.00 in
18:01 74.6 °F 46.6 °F 29.69 in NW 10.4 mph 10.4 mph 37% 0.00 in
18:06 74.9 °F 48.3 °F 29.69 in Calm     39% 0.00 in
18:11 75.1 °F 48.4 °F 29.69 in NNW 2.3 mph 2.3 mph 39% 0.00 in
18:16 75.4 °F 46.6 °F 29.69 in NNW 1.2 mph   36% 0.00 in
18:22 75.6 °F 48.2 °F 29.69 in NNW 3.5 mph 3.5 mph 38% 0.00 in
18:27 75.8 °F 48.4 °F 29.69 in NNW 1.2 mph 1.2 mph 38% 0.00 in
18:32 76.0 °F 48.6 °F 29.69 in NNW 3.5 mph 3.5 mph 38% 0.00 in
18:37 75.6 °F 47.5 °F 29.70 in Calm     37% 0.00 in
18:42 75.4 °F 48.0 °F 29.70 in Calm     38% 0.00 in
18:47 75.3 °F 47.9 °F 29.69 in Calm     38% 0.00 in
18:52 75.1 °F 48.4 °F 29.69 in Calm     39% 0.00 in
18:57 74.9 °F 48.3 °F 29.69 in Calm     39% 0.00 in
19:02 74.7 °F 48.8 °F 29.70 in Calm     40% 0.00 in
19:07 74.6 °F 48.7 °F 29.70 in Calm     40% 0.00 in
19:12 74.0 °F 49.4 °F 29.71 in NW 2.3 mph 2.3 mph 42% 0.00 in
19:17 73.7 °F 49.8 °F 29.71 in Calm     43% 0.00 in
19:22 73.3 °F 48.8 °F 29.70 in Calm     42% 0.01 in
19:27 73.2 °F 48.7 °F 29.72 in Calm     42% 0.01 in
19:32 72.8 °F 50.2 °F 29.72 in Calm     45% 0.01 in
19:37 72.3 °F 49.2 °F 29.72 in Calm     44% 0.01 in
19:42 71.8 °F 49.3 °F 29.72 in Calm     45% 0.01 in
Windsor CO Weather
Compliments of Weather Underground